Time;durP1;ratioP1;P1;durP2;ratioP2;P2;SDS_P1;SDS_P2;PMS_P1;PMS_P2;Temp;Humidity;BMP_temperature;BMP_pressure;BME280_temperature;BME280_humidity;BME280_pressure;Samples;Min_cycle;Max_cycle;Signal;HPM_P1;HPM_P2
2022/11/01 00:01:35;;;;;;;2.83;2.53;;;;;;;;;;5093885;28;20213;-83
2022/11/01 00:04:02;;;;;;;2.85;2.65;;;;;;;;;;5093865;28;20295;-83
2022/11/01 00:06:30;;;;;;;4.38;2.78;;;;;;;;;;5094024;28;20293;-83
2022/11/01 00:08:59;;;;;;;2.55;2.35;;;;;;;;;;5093802;28;20224;-82
2022/11/01 00:11:26;;;;;;;2.88;2.60;;;;;;;;;;5093993;28;20303;-83
2022/11/01 00:13:54;;;;;;;2.90;2.70;;;;;;;;;;5093870;28;20296;-84
2022/11/01 00:16:22;;;;;;;3.47;3.05;;;;;;;;;;5093243;28;20636;-84
2022/11/01 00:18:49;;;;;;;3.30;3.00;;;;;;;;;;5093311;28;20215;-84
2022/11/01 00:21:17;;;;;;;4.15;2.65;;;;;;;;;;5093287;28;20741;-83
2022/11/01 00:23:46;;;;;;;3.53;3.22;;;;;;;;;;5093955;28;20262;-84
2022/11/01 00:26:18;;;;;;;3.45;3.13;;;;;;;;;;5093282;28;20737;-84
2022/11/01 00:28:46;;;;;;;4.65;3.35;;;;;;;;;;5093236;28;20291;-84
2022/11/01 00:31:14;;;;;;;9.18;4.55;;;;;;;;;;5093307;28;20227;-83
2022/11/01 00:33:42;;;;;;;6.43;4.15;;;;;;;;;;5094014;28;20637;-83
2022/11/01 00:36:10;;;;;;;5.15;3.45;;;;;;;;;;5093653;28;20271;-84
2022/11/01 00:38:38;;;;;;;4.20;3.78;;;;;;;;;;5093562;28;20287;-84
2022/11/01 00:41:06;;;;;;;9.30;5.35;;;;;;;;;;5093636;28;20231;-83
2022/11/01 00:43:36;;;;;;;6.68;4.78;;;;;;;;;;5093509;28;20200;-84
2022/11/01 00:46:05;;;;;;;5.22;4.43;;;;;;;;;;5093837;28;20231;-83
2022/11/01 00:48:32;;;;;;;6.75;4.78;;;;;;;;;;5092939;28;20207;-83
2022/11/01 00:51:00;;;;;;;8.48;5.97;;;;;;;;;;5093526;28;20287;-83
2022/11/01 00:53:27;;;;;;;5.88;4.05;;;;;;;;;;5101722;28;20290;-83
2022/11/01 00:56:00;;;;;;;5.82;3.60;;;;;;;;;;5113902;28;20199;-82
2022/11/01 00:58:28;;;;;;;6.45;4.15;;;;;;;;;;5116367;28;20199;-82
2022/11/01 01:00:57;;;;;;;6.25;3.90;;;;;;;;;;5117071;28;20291;-82
2022/11/01 01:03:25;;;;;;;4.55;3.83;;;;;;;;;;5117201;28;20204;-82
2022/11/01 01:05:53;;;;;;;7.53;4.75;;;;;;;;;;5117242;28;20213;-82
2022/11/01 01:08:22;;;;;;;4.07;3.50;;;;;;;;;;5117434;28;20196;-83
2022/11/01 01:10:49;;;;;;;3.95;3.50;;;;;;;;;;5117411;28;20720;-82
2022/11/01 01:13:17;;;;;;;5.07;3.83;;;;;;;;;;5117223;28;20240;-83
2022/11/01 01:15:45;;;;;;;6.20;3.92;;;;;;;;;;5116846;28;20295;-83
2022/11/01 01:18:14;;;;;;;9.43;4.78;;;;;;;;;;5117663;28;20203;-83
2022/11/01 01:20:42;;;;;;;5.95;4.20;;;;;;;;;;5117303;28;20294;-82
2022/11/01 01:23:09;;;;;;;8.48;4.05;;;;;;;;;;5116937;28;20302;-84
2022/11/01 01:25:40;;;;;;;7.22;3.47;;;;;;;;;;5116918;28;20217;-83
2022/11/01 01:28:07;;;;;;;7.35;4.03;;;;;;;;;;5116742;28;20203;-84
2022/11/01 01:30:35;;;;;;;7.45;4.43;;;;;;;;;;5116692;28;20223;-85
2022/11/01 01:33:02;;;;;;;6.78;3.92;;;;;;;;;;5116852;28;20314;-83
2022/11/01 01:35:31;;;;;;;4.97;4.00;;;;;;;;;;5116223;28;20295;-84
2022/11/01 01:37:59;;;;;;;5.68;4.78;;;;;;;;;;5116996;28;20286;-82
2022/11/01 01:40:26;;;;;;;5.55;3.47;;;;;;;;;;5117081;28;20698;-84
2022/11/01 01:42:54;;;;;;;4.30;3.88;;;;;;;;;;5116574;28;20697;-82
2022/11/01 01:45:40;;;;;;;6.80;3.80;;;;;;;;;;5116615;28;20257;-83
2022/11/01 01:48:15;;;;;;;4.35;3.47;;;;;;;;;;5115962;28;20199;-83
2022/11/01 01:50:49;;;;;;;6.63;3.40;;;;;;;;;;5116328;28;20199;-84
2022/11/01 01:53:21;;;;;;;5.53;3.40;;;;;;;;;;5116211;28;20222;-84
2022/11/01 01:55:54;;;;;;;3.60;2.78;;;;;;;;;;5116576;28;20575;-83
2022/11/01 01:58:24;;;;;;;3.30;3.00;;;;;;;;;;5116515;28;20188;-83
2022/11/01 02:00:53;;;;;;;3.13;2.92;;;;;;;;;;5116307;28;20187;-83
2022/11/01 02:03:22;;;;;;;5.40;3.30;;;;;;;;;;5116426;28;20684;-83
2022/11/01 02:05:55;;;;;;;5.25;3.47;;;;;;;;;;5116196;28;20298;-84
2022/11/01 02:08:27;;;;;;;5.22;3.50;;;;;;;;;;5115367;28;20216;-83
2022/11/01 02:10:56;;;;;;;5.60;3.83;;;;;;;;;;5116109;28;20184;-84
2022/11/01 02:13:23;;;;;;;5.30;4.50;;;;;;;;;;5115231;28;20356;-83
2022/11/01 02:16:16;;;;;;;5.97;4.57;;;;;;;;;;5116195;28;20695;-82
2022/11/01 02:18:47;;;;;;;8.27;4.30;;;;;;;;;;5115501;28;20184;-82
2022/11/01 02:21:49;;;;;;;4.45;4.05;;;;;;;;;;5115518;28;20620;-83
2022/11/01 02:24:48;;;;;;;5.07;4.03;;;;;;;;;;5115431;28;20289;-83
2022/11/01 02:27:23;;;;;;;4.70;4.05;;;;;;;;;;5115868;28;20199;-84
2022/11/01 02:30:09;;;;;;;4.40;3.92;;;;;;;;;;5115799;28;20274;-84
2022/11/01 02:32:55;;;;;;;4.55;3.38;;;;;;;;;;5118467;28;20310;-84
2022/11/01 02:35:29;;;;;;;3.72;3.42;;;;;;;;;;5119099;28;20248;-82
2022/11/01 02:38:01;;;;;;;4.05;3.67;;;;;;;;;;5118350;28;20188;-81
2022/11/01 02:40:39;;;;;;;5.75;3.83;;;;;;;;;;5119276;28;20236;-82
2022/11/01 02:43:13;;;;;;;8.95;4.13;;;;;;;;;;5118255;28;20292;-81
2022/11/01 02:45:44;;;;;;;6.68;3.88;;;;;;;;;;5118731;28;20209;-80
2022/11/01 02:48:13;;;;;;;3.53;3.22;;;;;;;;;;5118722;28;20252;-82
2022/11/01 02:50:44;;;;;;;4.82;3.90;;;;;;;;;;5118000;28;20247;-81
2022/11/01 02:53:12;;;;;;;4.20;3.10;;;;;;;;;;5111570;28;20228;-82
2022/11/01 02:55:39;;;;;;;5.70;4.85;;;;;;;;;;5097808;28;20224;-82
2022/11/01 02:58:13;;;;;;;4.35;2.80;;;;;;;;;;5097021;28;20569;-81
2022/11/01 03:00:41;;;;;;;5.93;4.05;;;;;;;;;;5097998;28;20279;-83
2022/11/01 03:03:15;;;;;;;5.00;3.40;;;;;;;;;;5096871;28;20242;-84
2022/11/01 03:05:57;;;;;;;4.40;3.08;;;;;;;;;;5096725;28;20185;-81
2022/11/01 03:08:27;;;;;;;7.97;4.85;;;;;;;;;;5097097;28;20248;-83
2022/11/01 03:11:04;;;;;;;5.05;4.35;;;;;;;;;;5097009;28;20259;-82
2022/11/01 03:13:56;;;;;;;4.60;4.22;;;;;;;;;;5097881;28;20211;-83
2022/11/01 03:16:31;;;;;;;5.25;4.63;;;;;;;;;;5098333;28;20188;-81
2022/11/01 03:19:32;;;;;;;4.32;3.88;;;;;;;;;;5097529;28;20283;-82
2022/11/01 03:22:05;;;;;;;6.63;5.10;;;;;;;;;;5091879;28;20313;-83
2022/11/01 03:24:37;;;;;;;6.07;5.15;;;;;;;;;;5115038;28;20278;-82
2022/11/01 03:27:10;;;;;;;10.05;6.55;;;;;;;;;;5118389;28;20688;-81
2022/11/01 03:29:39;;;;;;;8.18;6.35;;;;;;;;;;5117250;28;20844;-82
2022/11/01 03:32:07;;;;;;;8.65;6.45;;;;;;;;;;5117038;28;20296;-82
2022/11/01 03:34:37;;;;;;;7.40;6.63;;;;;;;;;;5118070;28;20306;-83
2022/11/01 03:37:10;;;;;;;8.02;6.50;;;;;;;;;;5117377;28;20238;-82
2022/11/01 03:39:41;;;;;;;8.95;6.43;;;;;;;;;;5117538;28;20210;-82
2022/11/01 03:42:13;;;;;;;8.73;6.72;;;;;;;;;;5116452;28;20310;-83
2022/11/01 03:44:44;;;;;;;6.90;6.22;;;;;;;;;;5117672;28;20183;-81
2022/11/01 03:47:13;;;;;;;7.28;5.95;;;;;;;;;;5117491;28;20215;-82
2022/11/01 03:49:42;;;;;;;8.13;6.43;;;;;;;;;;5116902;28;20191;-82
2022/11/01 03:52:09;;;;;;;8.40;7.03;;;;;;;;;;5116819;28;20287;-84
2022/11/01 03:54:36;;;;;;;6.78;5.97;;;;;;;;;;5116899;28;20227;-82
2022/11/01 03:57:04;;;;;;;11.68;5.80;;;;;;;;;;5116353;28;20205;-82
2022/11/01 03:59:32;;;;;;;12.23;7.03;;;;;;;;;;5117415;28;20636;-84
2022/11/01 04:01:59;;;;;;;7.60;6.63;;;;;;;;;;5116561;28;20659;-84
2022/11/01 04:04:27;;;;;;;7.47;6.07;;;;;;;;;;5117079;28;20598;-83
2022/11/01 04:06:55;;;;;;;15.73;5.97;;;;;;;;;;5115832;28;20691;-84
2022/11/01 04:09:23;;;;;;;9.90;7.13;;;;;;;;;;5116943;28;20240;-83
2022/11/01 04:11:50;;;;;;;7.20;6.20;;;;;;;;;;5116388;28;20298;-84
2022/11/01 04:22:31;;;;;;;7.05;6.35;;;;;;;;;;5114751;28;20718;-83
2022/11/01 04:24:58;;;;;;;7.63;6.93;;;;;;;;;;5096007;28;20350;-84
2022/11/01 04:27:26;;;;;;;8.60;5.70;;;;;;;;;;5095144;28;20287;-84
2022/11/01 04:29:53;;;;;;;6.45;5.07;;;;;;;;;;5094987;28;20316;-83
2022/11/01 04:32:20;;;;;;;7.68;6.15;;;;;;;;;;5097515;28;20235;-83
2022/11/01 04:34:48;;;;;;;5.55;5.05;;;;;;;;;;5100018;28;20362;-84
2022/11/01 04:37:15;;;;;;;9.43;6.47;;;;;;;;;;5099618;28;20200;-82
2022/11/01 04:39:44;;;;;;;7.85;6.97;;;;;;;;;;5099674;28;20238;-83
2022/11/01 04:42:12;;;;;;;7.95;5.72;;;;;;;;;;5100023;28;20216;-84
2022/11/01 04:44:39;;;;;;;6.53;5.13;;;;;;;;;;5099666;28;20228;-84
2022/11/01 04:47:07;;;;;;;5.80;3.80;;;;;;;;;;5099172;28;20211;-82
2022/11/01 04:49:34;;;;;;;4.50;3.72;;;;;;;;;;5098846;28;20282;-82
2022/11/01 04:52:02;;;;;;;4.40;3.90;;;;;;;;;;5099740;28;20730;-83
2022/11/01 04:54:32;;;;;;;5.25;4.63;;;;;;;;;;5116998;28;20229;-82
2022/11/01 04:57:01;;;;;;;6.88;5.93;;;;;;;;;;5119845;28;20200;-82
2022/11/01 04:59:28;;;;;;;5.72;4.13;;;;;;;;;;5119095;28;20187;-82
2022/11/01 05:01:56;;;;;;;6.28;5.32;;;;;;;;;;5119486;28;20283;-81
2022/11/01 05:04:23;;;;;;;4.53;3.58;;;;;;;;;;5119278;28;20349;-82
2022/11/01 05:06:51;;;;;;;6.30;3.42;;;;;;;;;;5119774;28;20714;-81
2022/11/01 05:09:18;;;;;;;4.57;3.92;;;;;;;;;;5119831;28;20653;-81
2022/11/01 05:11:46;;;;;;;3.78;3.28;;;;;;;;;;5119192;28;20539;-82
2022/11/01 05:14:14;;;;;;;5.40;4.32;;;;;;;;;;5119804;28;21001;-82
2022/11/01 05:16:42;;;;;;;4.07;2.92;;;;;;;;;;5119532;28;20237;-82
2022/11/01 05:19:10;;;;;;;6.10;4.90;;;;;;;;;;5119106;28;20202;-82
2022/11/01 05:21:37;;;;;;;4.57;3.40;;;;;;;;;;5119515;28;20286;-84
2022/11/01 05:24:06;;;;;;;2.92;2.70;;;;;;;;;;5117886;28;20641;-84
2022/11/01 05:26:34;;;;;;;4.20;3.80;;;;;;;;;;5118500;28;20260;-84
2022/11/01 05:29:02;;;;;;;6.00;3.00;;;;;;;;;;5118538;28;20219;-84
2022/11/01 05:31:30;;;;;;;5.63;3.90;;;;;;;;;;5117746;28;20311;-86
2022/11/01 05:33:58;;;;;;;4.72;2.90;;;;;;;;;;5118557;28;20318;-82
2022/11/01 05:36:25;;;;;;;6.35;4.80;;;;;;;;;;5117821;28;20290;-84
2022/11/01 05:38:56;;;;;;;6.80;4.03;;;;;;;;;;5117689;28;20299;-82
2022/11/01 05:41:24;;;;;;;6.53;4.72;;;;;;;;;;5119882;28;20251;-83
2022/11/01 05:43:52;;;;;;;5.75;4.43;;;;;;;;;;5119016;28;20639;-82
2022/11/01 05:46:19;;;;;;;4.50;3.80;;;;;;;;;;5119905;28;20588;-82
2022/11/01 05:48:48;;;;;;;3.83;3.42;;;;;;;;;;5118477;28;20289;-84
2022/11/01 05:51:16;;;;;;;4.47;4.05;;;;;;;;;;5122926;28;20235;-83
2022/11/01 05:53:43;;;;;;;4.32;4.00;;;;;;;;;;5120092;28;20235;-83
2022/11/01 05:56:11;;;;;;;3.25;2.97;;;;;;;;;;5120594;28;20767;-81
2022/11/01 05:58:38;;;;;;;5.72;5.10;;;;;;;;;;5119111;28;20291;-82
2022/11/01 06:01:07;;;;;;;6.22;4.47;;;;;;;;;;5118927;28;20230;-83
2022/11/01 06:03:36;;;;;;;6.82;3.67;;;;;;;;;;5118638;28;20200;-81
2022/11/01 06:06:05;;;;;;;6.03;4.35;;;;;;;;;;5119351;28;20277;-82
2022/11/01 06:08:32;;;;;;;6.90;3.88;;;;;;;;;;5119144;28;20288;-82
2022/11/01 06:11:04;;;;;;;4.00;3.60;;;;;;;;;;5118929;28;20234;-81
2022/11/01 06:13:32;;;;;;;5.22;3.92;;;;;;;;;;5119361;28;20199;-82
2022/11/01 06:16:00;;;;;;;6.13;4.30;;;;;;;;;;5118649;28;20310;-84
2022/11/01 06:18:27;;;;;;;7.60;5.07;;;;;;;;;;5118313;28;20652;-83
2022/11/01 06:20:55;;;;;;;4.35;3.95;;;;;;;;;;5117991;28;20282;-81
2022/11/01 06:23:24;;;;;;;5.35;4.57;;;;;;;;;;5117299;28;20294;-82
2022/11/01 06:25:58;;;;;;;4.03;3.63;;;;;;;;;;5117728;28;20791;-82
2022/11/01 06:28:26;;;;;;;7.15;5.60;;;;;;;;;;5117438;28;20256;-83
2022/11/01 06:30:53;;;;;;;8.63;4.97;;;;;;;;;;5118348;28;20200;-85
2022/11/01 06:33:21;;;;;;;4.78;4.18;;;;;;;;;;5117910;28;20270;-84
2022/11/01 06:35:48;;;;;;;4.75;4.32;;;;;;;;;;5117463;28;20391;-85
2022/11/01 06:38:16;;;;;;;5.00;4.53;;;;;;;;;;5116073;28;20264;-86
2022/11/01 06:40:47;;;;;;;7.32;4.88;;;;;;;;;;5116547;28;20233;-85
2022/11/01 06:43:15;;;;;;;5.22;4.28;;;;;;;;;;5116594;28;20298;-86
2022/11/01 06:45:43;;;;;;;6.75;5.78;;;;;;;;;;5116307;28;20214;-86
2022/11/01 06:48:11;;;;;;;5.15;4.22;;;;;;;;;;5116294;28;20207;-86
2022/11/01 06:50:38;;;;;;;9.50;5.88;;;;;;;;;;5116759;28;20707;-85
2022/11/01 06:53:06;;;;;;;6.97;4.68;;;;;;;;;;5111132;28;20281;-85
2022/11/01 06:55:33;;;;;;;6.20;4.90;;;;;;;;;;5095460;28;20336;-84
2022/11/01 06:58:03;;;;;;;5.30;4.25;;;;;;;;;;5096059;28;20253;-83
2022/11/01 07:00:31;;;;;;;4.57;4.05;;;;;;;;;;5100461;28;20712;-85
2022/11/01 07:03:00;;;;;;;5.00;4.22;;;;;;;;;;5116999;28;20754;-84
2022/11/01 07:05:28;;;;;;;4.22;3.80;;;;;;;;;;5117159;28;20231;-84
2022/11/01 07:07:56;;;;;;;6.55;4.50;;;;;;;;;;5117760;28;20282;-83
2022/11/01 07:10:23;;;;;;;4.68;3.80;;;;;;;;;;5118323;28;20576;-84
2022/11/01 07:12:51;;;;;;;6.45;4.38;;;;;;;;;;5119196;28;20278;-85
2022/11/01 07:15:20;;;;;;;5.97;4.63;;;;;;;;;;5118405;28;20709;-84
2022/11/01 07:17:47;;;;;;;4.85;4.13;;;;;;;;;;5117072;28;20231;-85
2022/11/01 07:20:15;;;;;;;5.85;4.72;;;;;;;;;;5116154;28;20238;-85
2022/11/01 07:22:43;;;;;;;4.78;4.05;;;;;;;;;;5116548;28;20302;-84
2022/11/01 07:25:10;;;;;;;4.50;4.05;;;;;;;;;;5107656;28;20234;-84
2022/11/01 07:27:38;;;;;;;4.32;3.25;;;;;;;;;;5115150;28;20184;-84
2022/11/01 07:30:06;;;;;;;4.10;3.67;;;;;;;;;;5114526;28;20722;-85
2022/11/01 07:32:35;;;;;;;3.40;3.10;;;;;;;;;;5114440;28;20227;-85
2022/11/01 07:35:03;;;;;;;7.22;4.90;;;;;;;;;;5114496;28;20243;-85
2022/11/01 07:37:31;;;;;;;4.72;3.45;;;;;;;;;;5114289;28;20286;-85
2022/11/01 07:39:58;;;;;;;5.07;4.53;;;;;;;;;;5114607;28;20282;-86
2022/11/01 07:42:25;;;;;;;6.50;4.45;;;;;;;;;;5115648;28;20233;-86
2022/11/01 07:44:54;;;;;;;4.00;3.65;;;;;;;;;;5115979;28;20227;-87
2022/11/01 07:47:22;;;;;;;4.07;3.35;;;;;;;;;;5116188;28;20196;-86
2022/11/01 07:49:51;;;;;;;3.83;3.53;;;;;;;;;;5115861;28;20230;-85
2022/11/01 07:52:19;;;;;;;4.10;3.70;;;;;;;;;;5116664;28;20234;-84
2022/11/01 07:54:46;;;;;;;6.40;3.60;;;;;;;;;;5096655;28;20605;-87
2022/11/01 07:57:14;;;;;;;6.43;3.85;;;;;;;;;;5095849;28;20335;-86
2022/11/01 07:59:41;;;;;;;3.92;3.53;;;;;;;;;;5095111;28;20265;-84
2022/11/01 08:02:09;;;;;;;5.07;4.57;;;;;;;;;;5095893;28;20262;-84
2022/11/01 08:04:37;;;;;;;4.20;2.90;;;;;;;;;;5095463;28;20200;-84
2022/11/01 08:07:06;;;;;;;3.75;3.25;;;;;;;;;;5097422;28;20196;-84
2022/11/01 08:09:33;;;;;;;2.90;2.53;;;;;;;;;;5099425;28;20239;-84
2022/11/01 08:12:01;;;;;;;3.40;2.70;;;;;;;;;;5099167;28;20230;-84
2022/11/01 08:14:28;;;;;;;3.30;3.00;;;;;;;;;;5099915;28;20207;-84
2022/11/01 08:17:00;;;;;;;3.47;3.17;;;;;;;;;;5099615;28;20254;-84
2022/11/01 08:19:28;;;;;;;3.75;3.30;;;;;;;;;;5098979;28;20191;-83
2022/11/01 08:21:58;;;;;;;2.92;2.72;;;;;;;;;;5099201;28;20224;-84
2022/11/01 08:24:27;;;;;;;3.78;3.38;;;;;;;;;;5116107;28;20204;-83
2022/11/01 08:26:55;;;;;;;3.83;2.72;;;;;;;;;;5119671;28;20223;-84
2022/11/01 08:29:22;;;;;;;2.70;2.35;;;;;;;;;;5119437;28;20231;-85
2022/11/01 08:31:50;;;;;;;3.92;3.25;;;;;;;;;;5119378;28;20711;-84
2022/11/01 08:34:17;;;;;;;2.90;2.70;;;;;;;;;;5118402;28;20630;-85
2022/11/01 08:36:45;;;;;;;5.40;3.80;;;;;;;;;;5118290;28;20230;-85
2022/11/01 08:39:12;;;;;;;4.50;3.80;;;;;;;;;;5118267;28;20231;-85
2022/11/01 08:41:41;;;;;;;4.90;3.70;;;;;;;;;;5118407;28;20247;-87
2022/11/01 08:44:09;;;;;;;4.63;2.83;;;;;;;;;;5118708;28;20208;-87
2022/11/01 08:46:36;;;;;;;2.67;2.47;;;;;;;;;;5118577;28;20238;-85
2022/11/01 08:49:04;;;;;;;2.42;2.20;;;;;;;;;;5118223;28;20196;-86
2022/11/01 08:51:31;;;;;;;2.28;2.08;;;;;;;;;;5117044;28;20310;-85
2022/11/01 08:53:59;;;;;;;4.18;2.40;;;;;;;;;;5117260;28;20242;-83
2022/11/01 08:56:28;;;;;;;2.92;2.50;;;;;;;;;;5117244;28;20312;-86
2022/11/01 08:58:57;;;;;;;2.40;2.20;;;;;;;;;;5117900;28;20263;-83
2022/11/01 09:01:25;;;;;;;3.95;2.30;;;;;;;;;;5117129;28;20220;-84
2022/11/01 09:03:57;;;;;;;3.03;2.72;;;;;;;;;;5116584;28;20206;-83
2022/11/01 09:06:24;;;;;;;3.85;2.78;;;;;;;;;;5116979;28;20548;-84
2022/11/01 09:08:52;;;;;;;5.57;2.92;;;;;;;;;;5116889;28;20204;-84
2022/11/01 09:11:20;;;;;;;3.90;2.33;;;;;;;;;;5117162;28;20510;-83
2022/11/01 09:13:48;;;;;;;2.83;2.63;;;;;;;;;;5116597;28;20287;-84
2022/11/01 09:16:17;;;;;;;2.95;2.35;;;;;;;;;;5117069;28;20223;-82
2022/11/01 09:18:45;;;;;;;4.18;2.42;;;;;;;;;;5116065;28;20237;-83
2022/11/01 09:21:12;;;;;;;3.00;2.42;;;;;;;;;;5116286;28;20748;-83
2022/11/01 09:23:40;;;;;;;3.25;2.80;;;;;;;;;;5116856;28;20222;-84
2022/11/01 09:26:10;;;;;;;5.20;2.25;;;;;;;;;;5116132;28;20192;-84
2022/11/01 09:28:38;;;;;;;2.50;2.30;;;;;;;;;;5116597;28;20226;-83
2022/11/01 09:31:08;;;;;;;2.40;1.58;;;;;;;;;;5116708;28;20639;-83
2022/11/01 09:33:37;;;;;;;2.00;1.80;;;;;;;;;;5116702;28;20590;-84
2022/11/01 09:36:05;;;;;;;3.80;1.70;;;;;;;;;;5116470;28;20278;-83
2022/11/01 09:38:32;;;;;;;3.10;2.10;;;;;;;;;;5116349;28;20282;-83
2022/11/01 09:41:05;;;;;;;3.08;1.77;;;;;;;;;;5115883;28;20286;-83
2022/11/01 09:43:35;;;;;;;2.08;1.70;;;;;;;;;;5116315;28;20211;-83
2022/11/01 09:46:04;;;;;;;3.35;1.73;;;;;;;;;;5116687;28;20632;-83
2022/11/01 09:48:33;;;;;;;1.70;1.60;;;;;;;;;;5116273;28;20199;-83
2022/11/01 09:51:05;;;;;;;3.45;1.70;;;;;;;;;;5116049;28;20653;-84
2022/11/01 09:53:32;;;;;;;3.45;1.70;;;;;;;;;;5116696;28;20274;-84
2022/11/01 09:56:08;;;;;;;1.83;1.73;;;;;;;;;;5115674;28;20249;-85
2022/11/01 09:58:47;;;;;;;2.05;1.80;;;;;;;;;;5115730;28;20231;-85
2022/11/01 10:01:45;;;;;;;1.30;1.20;;;;;;;;;;5116014;28;20216;-83
2022/11/01 10:04:46;;;;;;;2.38;1.80;;;;;;;;;;5116304;28;20280;-84
2022/11/01 10:07:22;;;;;;;1.83;1.63;;;;;;;;;;5116544;28;20199;-83
2022/11/01 10:09:56;;;;;;;3.42;1.98;;;;;;;;;;5116433;28;20264;-83
2022/11/01 10:12:44;;;;;;;4.78;1.75;;;;;;;;;;5115995;28;20231;-83
2022/11/01 10:15:32;;;;;;;2.03;1.80;;;;;;;;;;5116290;28;20227;-83
2022/11/01 10:18:10;;;;;;;2.42;2.13;;;;;;;;;;5116384;28;20203;-84
2022/11/01 10:20:39;;;;;;;2.38;1.73;;;;;;;;;;5115716;28;20275;-84
2022/11/01 10:23:11;;;;;;;1.77;1.63;;;;;;;;;;5116352;28;20654;-83
2022/11/01 10:25:40;;;;;;;1.60;1.50;;;;;;;;;;5116007;28;20629;-83
2022/11/01 10:28:14;;;;;;;3.40;1.88;;;;;;;;;;5115641;28;20609;-84
2022/11/01 10:30:46;;;;;;;3.03;1.67;;;;;;;;;;5115704;28;20191;-83
2022/11/01 10:33:25;;;;;;;1.80;1.70;;;;;;;;;;5115102;28;20223;-83
2022/11/01 10:35:57;;;;;;;1.55;1.35;;;;;;;;;;5115645;28;20667;-83
2022/11/01 10:38:36;;;;;;;2.30;1.48;;;;;;;;;;5115679;28;20199;-85
2022/11/01 10:41:15;;;;;;;2.50;1.85;;;;;;;;;;5115499;28;20598;-84
2022/11/01 10:43:45;;;;;;;1.58;1.48;;;;;;;;;;5115258;28;20226;-87
2022/11/01 10:46:17;;;;;;;1.45;1.35;;;;;;;;;;5115735;28;20195;-85
2022/11/01 10:48:50;;;;;;;1.60;1.50;;;;;;;;;;5115411;28;20180;-85
2022/11/01 10:51:20;;;;;;;3.30;1.40;;;;;;;;;;5115910;28;20270;-85
2022/11/01 10:53:52;;;;;;;1.52;1.42;;;;;;;;;;5115582;28;20211;-85
2022/11/01 10:56:30;;;;;;;2.80;1.65;;;;;;;;;;5115290;28;20686;-83
2022/11/01 10:59:02;;;;;;;2.00;1.40;;;;;;;;;;5115247;28;20340;-84
2022/11/01 11:01:38;;;;;;;1.75;1.27;;;;;;;;;;5114534;28;20303;-85
2022/11/01 11:04:09;;;;;;;2.22;1.60;;;;;;;;;;5114747;28;20222;-85
2022/11/01 11:06:41;;;;;;;2.05;1.80;;;;;;;;;;5116285;28;20553;-85
2022/11/01 11:09:22;;;;;;;1.30;1.20;;;;;;;;;;5115971;28;20180;-84
2022/11/01 11:11:51;;;;;;;1.80;1.63;;;;;;;;;;5116149;28;20634;-86
2022/11/01 11:14:19;;;;;;;1.98;1.40;;;;;;;;;;5116859;28;20199;-85
2022/11/01 11:16:50;;;;;;;2.55;1.50;;;;;;;;;;5116253;28;20221;-84
2022/11/01 11:19:25;;;;;;;1.45;1.35;;;;;;;;;;5116035;28;20711;-83
2022/11/01 11:21:57;;;;;;;1.10;1.00;;;;;;;;;;5115554;28;20219;-84
2022/11/01 11:24:31;;;;;;;1.50;1.40;;;;;;;;;;5115744;28;20212;-85
2022/11/01 11:26:58;;;;;;;1.67;1.58;;;;;;;;;;5115905;28;20190;-85
2022/11/01 11:29:38;;;;;;;1.40;1.30;;;;;;;;;;5116644;28;20294;-85
2022/11/01 11:32:13;;;;;;;1.70;1.60;;;;;;;;;;5116205;28;20363;-84
2022/11/01 11:34:42;;;;;;;83.22;15.27;;;;;;;;;;5115879;28;20552;-84
2022/11/01 11:37:20;;;;;;;6.95;2.97;;;;;;;;;;5117188;28;20286;-85
2022/11/01 11:40:18;;;;;;;34.33;8.90;;;;;;;;;;5116926;28;20184;-85
2022/11/01 11:42:47;;;;;;;3.42;1.80;;;;;;;;;;5114995;28;20222;-84
2022/11/01 11:45:28;;;;;;;1.80;1.48;;;;;;;;;;5115295;28;20253;-84
2022/11/01 11:47:56;;;;;;;3.55;1.33;;;;;;;;;;5115486;28;20198;-86
2022/11/01 11:50:31;;;;;;;1.52;1.42;;;;;;;;;;5115399;28;20246;-84
2022/11/01 11:53:03;;;;;;;1.15;1.05;;;;;;;;;;5115565;28;20215;-84
2022/11/01 11:55:45;;;;;;;2.53;1.25;;;;;;;;;;5115804;28;20179;-85
2022/11/01 11:58:24;;;;;;;1.80;1.08;;;;;;;;;;5115730;28;20298;-83
2022/11/01 12:00:58;;;;;;;2.63;1.30;;;;;;;;;;5115851;28;20267;-84
2022/11/01 12:03:26;;;;;;;1.20;1.08;;;;;;;;;;5116341;28;20210;-85
2022/11/01 12:05:57;;;;;;;1.35;1.25;;;;;;;;;;5116594;28;20235;-85
2022/11/01 12:08:43;;;;;;;1.17;0.95;;;;;;;;;;5117031;28;20192;-85
2022/11/01 12:11:13;;;;;;;1.40;1.02;;;;;;;;;;5117210;28;20191;-84
2022/11/01 12:13:42;;;;;;;1.05;1.00;;;;;;;;;;5116889;28;20637;-84
2022/11/01 12:16:23;;;;;;;1.73;1.63;;;;;;;;;;5116068;28;20291;-86
2022/11/01 12:18:56;;;;;;;0.90;0.80;;;;;;;;;;5115383;28;20246;-85
2022/11/01 12:21:29;;;;;;;0.90;0.90;;;;;;;;;;5116486;28;20274;-86
2022/11/01 12:24:01;;;;;;;2.03;1.10;;;;;;;;;;5115553;28;20262;-84
2022/11/01 12:26:33;;;;;;;0.80;0.80;;;;;;;;;;5114824;28;20203;-85
2022/11/01 12:29:15;;;;;;;0.88;0.88;;;;;;;;;;5114679;28;20185;-84
2022/11/01 12:31:44;;;;;;;0.88;0.80;;;;;;;;;;5115297;28;20344;-87
2022/11/01 12:34:18;;;;;;;0.90;0.90;;;;;;;;;;5115158;28;20212;-86
2022/11/01 12:36:52;;;;;;;0.80;0.80;;;;;;;;;;5115470;28;20210;-85
2022/11/01 12:39:33;;;;;;;1.20;0.82;;;;;;;;;;5115055;28;20216;-85
2022/11/01 12:42:04;;;;;;;1.30;1.10;;;;;;;;;;5115123;28;20220;-86
2022/11/01 12:44:36;;;;;;;1.08;1.00;;;;;;;;;;5115723;28;20231;-86
2022/11/01 12:47:08;;;;;;;0.68;0.68;;;;;;;;;;5115520;28;20227;-84
2022/11/01 12:49:45;;;;;;;0.88;0.85;;;;;;;;;;5116011;28;20212;-85
2022/11/01 12:52:21;;;;;;;1.33;1.00;;;;;;;;;;5115795;28;20229;-85
2022/11/01 12:55:00;;;;;;;1.75;0.88;;;;;;;;;;5118649;28;20206;-84
2022/11/01 12:57:29;;;;;;;5.60;1.10;;;;;;;;;;5118020;28;20282;-85
2022/11/01 12:59:56;;;;;;;1.10;0.90;;;;;;;;;;5118469;28;20220;-85
2022/11/01 13:02:39;;;;;;;1.10;1.10;;;;;;;;;;5118369;28;20283;-85
2022/11/01 13:05:11;;;;;;;0.70;0.70;;;;;;;;;;5118633;28;20637;-85
2022/11/01 13:07:52;;;;;;;0.82;0.82;;;;;;;;;;5118335;28;20184;-85
2022/11/01 13:10:28;;;;;;;0.80;0.80;;;;;;;;;;5117897;28;20218;-86
2022/11/01 13:13:07;;;;;;;0.85;0.80;;;;;;;;;;5118044;28;20298;-84
2022/11/01 13:15:41;;;;;;;1.15;1.00;;;;;;;;;;5117614;28;20291;-85
2022/11/01 13:18:13;;;;;;;0.75;0.75;;;;;;;;;;5118305;28;20747;-85
2022/11/01 13:20:52;;;;;;;1.88;1.77;;;;;;;;;;5117910;28;20214;-83
2022/11/01 13:23:26;;;;;;;0.90;0.90;;;;;;;;;;5117811;28;20301;-86
2022/11/01 13:25:58;;;;;;;1.02;0.70;;;;;;;;;;5118716;28;20215;-84
2022/11/01 13:28:44;;;;;;;1.02;0.90;;;;;;;;;;5119007;28;20184;-85
2022/11/01 13:31:25;;;;;;;1.38;0.88;;;;;;;;;;5118324;28;20202;-84
2022/11/01 13:34:03;;;;;;;1.10;1.00;;;;;;;;;;5118486;28;20253;-87
2022/11/01 13:36:37;;;;;;;0.73;0.73;;;;;;;;;;5118972;28;20184;-85
2022/11/01 13:39:14;;;;;;;1.45;1.20;;;;;;;;;;5115232;22;20666;-83
2022/11/01 13:41:50;;;;;;;0.60;0.60;;;;;;;;;;5100344;28;20286;-82
2022/11/01 13:44:22;;;;;;;0.70;0.70;;;;;;;;;;5106760;28;20306;-82
2022/11/01 13:47:06;;;;;;;1.38;0.60;;;;;;;;;;5117511;28;20287;-82
2022/11/01 13:50:01;;;;;;;1.00;0.65;;;;;;;;;;5116949;28;20200;-82
2022/11/01 13:52:30;;;;;;;0.57;0.57;;;;;;;;;;5118263;28;20298;-82
2022/11/01 13:55:06;;;;;;;2.35;0.98;;;;;;;;;;5118998;28;20228;-81
2022/11/01 13:57:34;;;;;;;1.35;0.82;;;;;;;;;;5117563;28;20290;-82
2022/11/01 14:00:08;;;;;;;1.20;1.10;;;;;;;;;;5116649;28;20310;-81
2022/11/01 14:02:55;;;;;;;1.80;0.88;;;;;;;;;;5116696;28;20286;-81
2022/11/01 14:05:22;;;;;;;0.55;0.45;;;;;;;;;;5116755;28;20310;-81
2022/11/01 14:08:26;;;;;;;0.93;0.73;;;;;;;;;;5117205;28;20206;-81
2022/11/01 14:10:54;;;;;;;0.70;0.70;;;;;;;;;;5114931;28;20205;-82
2022/11/01 14:13:38;;;;;;;0.88;0.50;;;;;;;;;;5114693;28;20290;-83
2022/11/01 14:16:28;;;;;;;0.70;0.70;;;;;;;;;;5115384;28;20231;-83
2022/11/01 14:19:14;;;;;;;0.73;0.65;;;;;;;;;;5114631;28;20216;-83
2022/11/01 14:21:44;;;;;;;1.20;0.82;;;;;;;;;;5114763;28;20200;-82
2022/11/01 14:24:28;;;;;;;0.70;0.60;;;;;;;;;;5115716;28;20316;-83
2022/11/01 14:27:21;;;;;;;1.38;0.85;;;;;;;;;;5114657;28;20290;-82
2022/11/01 14:29:55;;;;;;;2.03;0.77;;;;;;;;;;5114448;28;20605;-82
2022/11/01 14:32:26;;;;;;;1.00;0.85;;;;;;;;;;5115130;28;20204;-83
2022/11/01 14:35:16;;;;;;;0.85;0.60;;;;;;;;;;5114943;28;20255;-83
2022/11/01 14:37:48;;;;;;;0.70;0.70;;;;;;;;;;5114517;28;20203;-83
2022/11/01 14:40:29;;;;;;;0.57;0.45;;;;;;;;;;5114443;28;20219;-82
2022/11/01 14:43:01;;;;;;;1.08;0.70;;;;;;;;;;5114951;28;20679;-82
2022/11/01 14:45:32;;;;;;;0.60;0.60;;;;;;;;;;5114423;28;20230;-82
2022/11/01 14:48:10;;;;;;;1.38;1.08;;;;;;;;;;5113929;28;20298;-82
2022/11/01 14:50:47;;;;;;;0.70;0.70;;;;;;;;;;5114477;28;20286;-82
2022/11/01 14:53:22;;;;;;;0.75;0.70;;;;;;;;;;5114958;28;20203;-83
2022/11/01 14:55:50;;;;;;;0.55;0.55;;;;;;;;;;5114281;28;20663;-82
2022/11/01 14:58:21;;;;;;;0.70;0.70;;;;;;;;;;5113405;28;20291;-82
2022/11/01 15:00:51;;;;;;;1.05;0.85;;;;;;;;;;5113636;28;20283;-82
2022/11/01 15:03:20;;;;;;;0.75;0.75;;;;;;;;;;5114466;28;20203;-82
2022/11/01 15:05:51;;;;;;;1.13;0.75;;;;;;;;;;5114192;28;20199;-82
2022/11/01 15:08:26;;;;;;;0.70;0.70;;;;;;;;;;5113752;28;20685;-82
2022/11/01 15:10:56;;;;;;;3.05;1.45;;;;;;;;;;5113308;28;20278;-82
2022/11/01 15:13:26;;;;;;;3.60;2.65;;;;;;;;;;5113575;28;20196;-82
2022/11/01 15:16:05;;;;;;;3.03;2.72;;;;;;;;;;5112988;28;20688;-82
2022/11/01 15:18:35;;;;;;;4.07;2.25;;;;;;;;;;5111487;28;20305;-82